sensor_id;sensor_type;location;lat;lon;timestamp;pressure;altitude;pressure_sealevel;temperature;humidity
23616;BME280;11985;49.404;7.734;2023-01-29T00:00:06;98417.44;;;-1.73;93.22
23616;BME280;11985;49.404;7.734;2023-01-29T00:05:09;98429.63;;;-1.88;93.45
23616;BME280;11985;49.404;7.734;2023-01-29T00:10:12;98423.81;;;-1.91;94.57
23616;BME280;11985;49.404;7.734;2023-01-29T00:15:13;98427.34;;;-1.92;95.87
23616;BME280;11985;49.404;7.734;2023-01-29T00:20:15;98421.22;;;-1.91;96.64
23616;BME280;11985;49.404;7.734;2023-01-29T00:25:19;98419.00;;;-1.83;96.55
23616;BME280;11985;49.404;7.734;2023-01-29T00:30:20;98408.97;;;-1.75;96.75
23616;BME280;11985;49.404;7.734;2023-01-29T00:35:22;98394.72;;;-1.68;97.14
23616;BME280;11985;49.404;7.734;2023-01-29T00:40:25;98401.78;;;-1.57;97.90
23616;BME280;11985;49.404;7.734;2023-01-29T00:45:26;98406.97;;;-1.44;98.53
23616;BME280;11985;49.404;7.734;2023-01-29T00:50:28;98411.72;;;-1.38;97.41
23616;BME280;11985;49.404;7.734;2023-01-29T00:55:31;98405.22;;;-1.44;95.69
23616;BME280;11985;49.404;7.734;2023-01-29T01:00:33;98421.84;;;-1.61;95.96
23616;BME280;11985;49.404;7.734;2023-01-29T01:05:34;98428.13;;;-1.65;95.77
23616;BME280;11985;49.404;7.734;2023-01-29T01:10:39;98422.44;;;-1.70;97.62
23616;BME280;11985;49.404;7.734;2023-01-29T01:15:41;98434.41;;;-1.69;98.30
23616;BME280;11985;49.404;7.734;2023-01-29T01:20:42;98431.09;;;-1.71;97.23
23616;BME280;11985;49.404;7.734;2023-01-29T01:25:45;98429.47;;;-1.72;97.60
23616;BME280;11985;49.404;7.734;2023-01-29T01:30:47;98436.06;;;-1.68;98.84
23616;BME280;11985;49.404;7.734;2023-01-29T01:35:48;98427.19;;;-1.64;98.84
23616;BME280;11985;49.404;7.734;2023-01-29T01:40:51;98426.66;;;-1.56;98.38
23616;BME280;11985;49.404;7.734;2023-01-29T01:45:53;98424.00;;;-1.54;98.90
23616;BME280;11985;49.404;7.734;2023-01-29T01:50:57;98416.84;;;-1.64;97.34
23616;BME280;11985;49.404;7.734;2023-01-29T01:56:02;98425.53;;;-1.77;96.46
23616;BME280;11985;49.404;7.734;2023-01-29T02:01:07;98420.84;;;-1.85;95.73
23616;BME280;11985;49.404;7.734;2023-01-29T02:06:09;98409.78;;;-1.87;95.60
23616;BME280;11985;49.404;7.734;2023-01-29T02:11:30;98405.63;;;-1.90;95.26
23616;BME280;11985;49.404;7.734;2023-01-29T02:16:33;98405.59;;;-2.02;95.26
23616;BME280;11985;49.404;7.734;2023-01-29T02:21:55;98401.28;;;-2.02;96.05
23616;BME280;11985;49.404;7.734;2023-01-29T02:27:08;98395.81;;;-1.97;96.16
23616;BME280;11985;49.404;7.734;2023-01-29T02:32:20;98399.66;;;-1.90;97.21
23616;BME280;11985;49.404;7.734;2023-01-29T02:37:30;98375.28;;;-1.86;97.24
23616;BME280;11985;49.404;7.734;2023-01-29T02:42:39;98374.25;;;-1.83;98.15
23616;BME280;11985;49.404;7.734;2023-01-29T02:47:47;98376.75;;;-1.82;98.20
23616;BME280;11985;49.404;7.734;2023-01-29T02:53:00;98367.00;;;-1.91;98.10
23616;BME280;11985;49.404;7.734;2023-01-29T02:58:10;98366.78;;;-2.01;97.96
23616;BME280;11985;49.404;7.734;2023-01-29T03:03:17;98356.44;;;-2.01;98.05
23616;BME280;11985;49.404;7.734;2023-01-29T03:08:29;98357.09;;;-1.97;97.96
23616;BME280;11985;49.404;7.734;2023-01-29T03:13:44;98372.75;;;-2.00;97.39
23616;BME280;11985;49.404;7.734;2023-01-29T03:18:51;98382.72;;;-1.94;98.17
23616;BME280;11985;49.404;7.734;2023-01-29T03:23:56;98389.19;;;-2.01;98.13
23616;BME280;11985;49.404;7.734;2023-01-29T03:29:17;98385.25;;;-2.07;98.32
23616;BME280;11985;49.404;7.734;2023-01-29T03:34:40;98392.97;;;-2.20;97.49
23616;BME280;11985;49.404;7.734;2023-01-29T03:39:42;98404.25;;;-2.35;95.77
23616;BME280;11985;49.404;7.734;2023-01-29T03:44:52;98396.50;;;-2.35;96.19
23616;BME280;11985;49.404;7.734;2023-01-29T03:50:00;98402.31;;;-2.31;98.01
23616;BME280;11985;49.404;7.734;2023-01-29T03:55:10;98410.25;;;-2.34;97.87
23616;BME280;11985;49.404;7.734;2023-01-29T04:00:16;98413.97;;;-2.38;98.23
23616;BME280;11985;49.404;7.734;2023-01-29T04:05:23;98422.16;;;-2.46;98.97
23616;BME280;11985;49.404;7.734;2023-01-29T04:10:26;98423.38;;;-2.52;98.42
23616;BME280;11985;49.404;7.734;2023-01-29T04:15:35;98420.34;;;-2.58;98.36
23616;BME280;11985;49.404;7.734;2023-01-29T04:20:40;98401.41;;;-2.72;97.37
23616;BME280;11985;49.404;7.734;2023-01-29T04:25:45;98403.25;;;-2.74;96.60
23616;BME280;11985;49.404;7.734;2023-01-29T04:30:52;98401.03;;;-2.66;96.81
23616;BME280;11985;49.404;7.734;2023-01-29T04:36:02;98393.28;;;-2.66;98.22
23616;BME280;11985;49.404;7.734;2023-01-29T04:41:10;98385.63;;;-2.67;99.05
23616;BME280;11985;49.404;7.734;2023-01-29T04:46:18;98373.19;;;-2.60;99.02
23616;BME280;11985;49.404;7.734;2023-01-29T04:51:24;98361.84;;;-2.58;98.81
23616;BME280;11985;49.404;7.734;2023-01-29T04:56:34;98367.84;;;-2.57;100.00
23616;BME280;11985;49.404;7.734;2023-01-29T05:01:39;98366.50;;;-2.50;99.68
23616;BME280;11985;49.404;7.734;2023-01-29T05:06:44;98383.13;;;-2.54;98.03
23616;BME280;11985;49.404;7.734;2023-01-29T05:11:46;98376.13;;;-2.52;97.79
23616;BME280;11985;49.404;7.734;2023-01-29T05:16:51;98390.34;;;-2.32;97.36
23616;BME280;11985;49.404;7.734;2023-01-29T05:21:55;98392.75;;;-2.17;97.09
23616;BME280;11985;49.404;7.734;2023-01-29T05:26:58;98388.88;;;-2.09;94.87
23616;BME280;11985;49.404;7.734;2023-01-29T05:32:17;98392.31;;;-1.96;94.12
23616;BME280;11985;49.404;7.734;2023-01-29T05:37:20;98397.00;;;-1.76;94.17
23616;BME280;11985;49.404;7.734;2023-01-29T05:42:21;98391.03;;;-1.64;93.73
23616;BME280;11985;49.404;7.734;2023-01-29T05:47:23;98402.81;;;-1.60;92.09
23616;BME280;11985;49.404;7.734;2023-01-29T05:52:26;98389.56;;;-1.68;91.26
23616;BME280;11985;49.404;7.734;2023-01-29T05:57:27;98381.91;;;-1.82;92.02
23616;BME280;11985;49.404;7.734;2023-01-29T06:02:29;98372.59;;;-1.84;93.16
23616;BME280;11985;49.404;7.734;2023-01-29T06:07:32;98365.59;;;-1.82;93.40
23616;BME280;11985;49.404;7.734;2023-01-29T06:12:34;98385.31;;;-1.94;92.23
23616;BME280;11985;49.404;7.734;2023-01-29T06:17:35;98385.00;;;-2.17;92.15
23616;BME280;11985;49.404;7.734;2023-01-29T06:22:38;98390.28;;;-2.18;92.73
23616;BME280;11985;49.404;7.734;2023-01-29T06:27:49;98388.13;;;-2.12;94.29
23616;BME280;11985;49.404;7.734;2023-01-29T06:32:55;98395.09;;;-1.99;94.97
23616;BME280;11985;49.404;7.734;2023-01-29T06:37:59;98370.31;;;-1.89;95.77
23616;BME280;11985;49.404;7.734;2023-01-29T06:43:00;98366.59;;;-1.85;96.10
23616;BME280;11985;49.404;7.734;2023-01-29T06:48:02;98377.16;;;-1.88;94.46
23616;BME280;11985;49.404;7.734;2023-01-29T06:53:05;98381.69;;;-1.92;94.10
23616;BME280;11985;49.404;7.734;2023-01-29T06:58:08;98376.09;;;-1.98;93.46
23616;BME280;11985;49.404;7.734;2023-01-29T07:03:10;98376.69;;;-2.07;93.86
23616;BME280;11985;49.404;7.734;2023-01-29T07:08:12;98383.50;;;-2.06;92.69
23616;BME280;11985;49.404;7.734;2023-01-29T07:13:14;98384.53;;;-2.09;92.81
23616;BME280;11985;49.404;7.734;2023-01-29T07:18:15;98388.88;;;-2.09;93.17
23616;BME280;11985;49.404;7.734;2023-01-29T07:23:18;98390.53;;;-2.08;92.73
23616;BME280;11985;49.404;7.734;2023-01-29T07:28:20;98399.88;;;-1.93;92.98
23616;BME280;11985;49.404;7.734;2023-01-29T07:33:21;98394.06;;;-1.84;93.20
23616;BME280;11985;49.404;7.734;2023-01-29T07:38:24;98393.28;;;-1.72;93.80
23616;BME280;11985;49.404;7.734;2023-01-29T07:43:26;98397.84;;;-1.63;93.64
23616;BME280;11985;49.404;7.734;2023-01-29T07:48:28;98399.47;;;-1.74;92.55
23616;BME280;11985;49.404;7.734;2023-01-29T07:53:30;98414.31;;;-1.91;92.11
23616;BME280;11985;49.404;7.734;2023-01-29T07:58:32;98411.56;;;-2.15;91.61
23616;BME280;11985;49.404;7.734;2023-01-29T08:03:34;98412.38;;;-2.14;92.93
23616;BME280;11985;49.404;7.734;2023-01-29T08:08:37;98428.66;;;-1.99;91.94
23616;BME280;11985;49.404;7.734;2023-01-29T08:13:38;98416.56;;;-1.99;92.09
23616;BME280;11985;49.404;7.734;2023-01-29T08:18:40;98426.69;;;-1.96;92.20
23616;BME280;11985;49.404;7.734;2023-01-29T08:23:46;98438.38;;;-1.90;92.40
23616;BME280;11985;49.404;7.734;2023-01-29T08:28:48;98436.75;;;-1.78;92.29
23616;BME280;11985;49.404;7.734;2023-01-29T08:33:49;98433.44;;;-1.80;91.78
23616;BME280;11985;49.404;7.734;2023-01-29T08:38:52;98423.53;;;-1.74;91.92
23616;BME280;11985;49.404;7.734;2023-01-29T08:43:54;98427.72;;;-1.58;91.46
23616;BME280;11985;49.404;7.734;2023-01-29T08:48:56;98438.84;;;-1.71;90.17
23616;BME280;11985;49.404;7.734;2023-01-29T08:54:02;98442.16;;;-2.08;90.21
23616;BME280;11985;49.404;7.734;2023-01-29T08:59:04;98431.13;;;-2.25;92.10
23616;BME280;11985;49.404;7.734;2023-01-29T09:04:06;98409.41;;;-2.35;92.78
23616;BME280;11985;49.404;7.734;2023-01-29T09:09:09;98384.44;;;-2.34;93.31
23616;BME280;11985;49.404;7.734;2023-01-29T09:14:12;98376.16;;;-2.40;93.79
23616;BME280;11985;49.404;7.734;2023-01-29T09:19:13;98362.53;;;-2.42;94.01
23616;BME280;11985;49.404;7.734;2023-01-29T09:24:17;98382.59;;;-2.59;94.20
23616;BME280;11985;49.404;7.734;2023-01-29T09:29:18;98388.69;;;-2.75;94.31
23616;BME280;11985;49.404;7.734;2023-01-29T09:34:20;98381.28;;;-2.94;94.99
23616;BME280;11985;49.404;7.734;2023-01-29T09:39:23;98400.31;;;-2.82;96.68
23616;BME280;11985;49.404;7.734;2023-01-29T09:44:32;98403.56;;;-2.51;97.27
23616;BME280;11985;49.404;7.734;2023-01-29T09:49:40;98397.19;;;-2.19;96.34
23616;BME280;11985;49.404;7.734;2023-01-29T09:54:50;98410.78;;;-2.02;95.27
23616;BME280;11985;49.404;7.734;2023-01-29T09:59:53;98423.56;;;-2.01;94.44
23616;BME280;11985;49.404;7.734;2023-01-29T10:05:13;98423.56;;;-2.01;94.38
23616;BME280;11985;49.404;7.734;2023-01-29T10:10:28;98417.72;;;-1.90;94.47
23616;BME280;11985;49.404;7.734;2023-01-29T10:15:42;98431.91;;;-1.83;94.57
23616;BME280;11985;49.404;7.734;2023-01-29T10:20:53;98431.53;;;-1.64;94.95
23616;BME280;11985;49.404;7.734;2023-01-29T10:26:00;98431.13;;;-1.45;93.84
23616;BME280;11985;49.404;7.734;2023-01-29T10:31:05;98434.34;;;-1.42;92.35
23616;BME280;11985;49.404;7.734;2023-01-29T10:36:12;98425.25;;;-1.35;92.37
23616;BME280;11985;49.404;7.734;2023-01-29T10:41:28;98417.53;;;-1.22;92.10
23616;BME280;11985;49.404;7.734;2023-01-29T10:46:42;98409.22;;;-1.01;91.80
23616;BME280;11985;49.404;7.734;2023-01-29T10:51:55;98402.56;;;-0.80;91.70
23616;BME280;11985;49.404;7.734;2023-01-29T10:57:11;98398.34;;;-0.81;90.55
23616;BME280;11985;49.404;7.734;2023-01-29T11:02:16;98390.19;;;-1.00;89.71
23616;BME280;11985;49.404;7.734;2023-01-29T11:07:20;98391.72;;;-0.85;90.67
23616;BME280;11985;49.404;7.734;2023-01-29T11:12:26;98363.25;;;-0.85;89.22
23616;BME280;11985;49.404;7.734;2023-01-29T11:17:31;98351.06;;;-0.83;88.82
23616;BME280;11985;49.404;7.734;2023-01-29T11:22:33;98346.13;;;-0.99;88.22
23616;BME280;11985;49.404;7.734;2023-01-29T11:27:43;98334.56;;;-1.19;88.98
23616;BME280;11985;49.404;7.734;2023-01-29T11:32:49;98328.38;;;-1.16;88.98
23616;BME280;11985;49.404;7.734;2023-01-29T11:38:05;98313.66;;;-1.03;89.17
23616;BME280;11985;49.404;7.734;2023-01-29T11:43:29;98310.50;;;-0.83;89.34
23616;BME280;11985;49.404;7.734;2023-01-29T11:48:38;98288.22;;;-0.48;89.19
23616;BME280;11985;49.404;7.734;2023-01-29T11:53:42;98281.31;;;-0.37;87.93
23616;BME280;11985;49.404;7.734;2023-01-29T11:58:47;98268.78;;;-0.54;87.76
23616;BME280;11985;49.404;7.734;2023-01-29T12:03:51;98279.22;;;-0.56;88.75
23616;BME280;11985;49.404;7.734;2023-01-29T12:08:55;98260.38;;;-0.34;89.04
23616;BME280;11985;49.404;7.734;2023-01-29T12:14:01;98263.81;;;-0.57;87.71
23616;BME280;11985;49.404;7.734;2023-01-29T12:19:09;98258.91;;;-0.73;88.18
23616;BME280;11985;49.404;7.734;2023-01-29T12:24:24;98253.97;;;-0.76;87.92
23616;BME280;11985;49.404;7.734;2023-01-29T12:29:36;98248.81;;;-0.76;88.48
23616;BME280;11985;49.404;7.734;2023-01-29T12:34:43;98241.94;;;-0.88;88.20
23616;BME280;11985;49.404;7.734;2023-01-29T12:39:48;98236.81;;;-0.77;89.39
23616;BME280;11985;49.404;7.734;2023-01-29T12:44:52;98236.00;;;-0.42;90.24
23616;BME280;11985;49.404;7.734;2023-01-29T12:49:56;98227.56;;;-0.33;88.77
23616;BME280;11985;49.404;7.734;2023-01-29T12:55:04;98216.41;;;-0.58;88.10
23616;BME280;11985;49.404;7.734;2023-01-29T13:00:12;98206.22;;;-0.48;88.67
23616;BME280;11985;49.404;7.734;2023-01-29T13:05:19;98195.19;;;-0.39;88.83
23616;BME280;11985;49.404;7.734;2023-01-29T13:10:25;98188.94;;;-0.36;88.66
23616;BME280;11985;49.404;7.734;2023-01-29T13:15:33;98192.06;;;-0.09;89.12
23616;BME280;11985;49.404;7.734;2023-01-29T13:20:36;98196.16;;;-0.06;87.80
23616;BME280;11985;49.404;7.734;2023-01-29T13:25:38;98196.91;;;-0.04;88.04
23616;BME280;11985;49.404;7.734;2023-01-29T13:30:42;98188.66;;;0.02;88.33
23616;BME280;11985;49.404;7.734;2023-01-29T13:35:44;98192.06;;;0.14;87.37
23616;BME280;11985;49.404;7.734;2023-01-29T13:40:48;98191.00;;;-0.06;87.39
23616;BME280;11985;49.404;7.734;2023-01-29T13:45:52;98190.44;;;0.02;87.78
23616;BME280;11985;49.404;7.734;2023-01-29T13:50:58;98189.00;;;0.09;87.53
23616;BME280;11985;49.404;7.734;2023-01-29T13:56:29;98184.53;;;0.11;87.44
23616;BME280;11985;49.404;7.734;2023-01-29T14:02:03;98177.78;;;-0.25;86.74
23616;BME280;11985;49.404;7.734;2023-01-29T14:07:47;98187.00;;;-0.57;88.45
23616;BME280;11985;49.404;7.734;2023-01-29T14:12:51;98174.06;;;-0.57;89.16
23616;BME280;11985;49.404;7.734;2023-01-29T14:18:14;98175.00;;;-0.58;89.97
23616;BME280;11985;49.404;7.734;2023-01-29T14:23:23;98157.59;;;-0.56;90.28
23616;BME280;11985;49.404;7.734;2023-01-29T14:28:30;98153.41;;;-0.34;90.76
23616;BME280;11985;49.404;7.734;2023-01-29T14:33:35;98146.38;;;-0.32;89.90
23616;BME280;11985;49.404;7.734;2023-01-29T14:38:39;98148.38;;;-0.24;89.50
23616;BME280;11985;49.404;7.734;2023-01-29T14:43:41;98145.09;;;-0.15;89.54
23616;BME280;11985;49.404;7.734;2023-01-29T14:48:46;98148.03;;;0.03;89.29
23616;BME280;11985;49.404;7.734;2023-01-29T14:53:56;98141.88;;;-0.41;88.80
23616;BME280;11985;49.404;7.734;2023-01-29T14:59:10;98148.22;;;-0.45;89.12
23616;BME280;11985;49.404;7.734;2023-01-29T15:04:17;98147.97;;;-0.54;89.99
23616;BME280;11985;49.404;7.734;2023-01-29T15:09:30;98152.06;;;-0.62;89.81
23616;BME280;11985;49.404;7.734;2023-01-29T15:14:36;98153.84;;;-0.51;89.85
23616;BME280;11985;49.404;7.734;2023-01-29T15:19:44;98154.22;;;-0.45;90.16
23616;BME280;11985;49.404;7.734;2023-01-29T15:25:02;98144.22;;;-0.61;90.29
23616;BME280;11985;49.404;7.734;2023-01-29T15:30:05;98145.16;;;-0.50;90.58
23616;BME280;11985;49.404;7.734;2023-01-29T15:35:23;98157.03;;;-0.59;90.62
23616;BME280;11985;49.404;7.734;2023-01-29T15:40:27;98154.28;;;-0.69;90.63
23616;BME280;11985;49.404;7.734;2023-01-29T15:45:30;98158.28;;;-0.76;91.02
23616;BME280;11985;49.404;7.734;2023-01-29T15:50:36;98151.66;;;-0.80;91.63
23616;BME280;11985;49.404;7.734;2023-01-29T15:55:39;98148.34;;;-0.93;91.89
23616;BME280;11985;49.404;7.734;2023-01-29T16:00:47;98148.56;;;-0.96;93.05
23616;BME280;11985;49.404;7.734;2023-01-29T16:05:52;98135.50;;;-0.95;93.42
23616;BME280;11985;49.404;7.734;2023-01-29T16:10:56;98129.59;;;-1.08;93.83
23616;BME280;11985;49.404;7.734;2023-01-29T16:16:01;98128.09;;;-1.23;93.84
23616;BME280;11985;49.404;7.734;2023-01-29T16:21:08;98116.38;;;-1.27;93.91
23616;BME280;11985;49.404;7.734;2023-01-29T16:26:14;98110.25;;;-1.26;94.58
23616;BME280;11985;49.404;7.734;2023-01-29T16:31:22;98094.66;;;-1.14;94.81
23616;BME280;11985;49.404;7.734;2023-01-29T16:36:27;98100.28;;;-1.20;94.60
23616;BME280;11985;49.404;7.734;2023-01-29T16:41:30;98096.59;;;-1.28;94.95
23616;BME280;11985;49.404;7.734;2023-01-29T16:46:34;98089.84;;;-1.42;95.82
23616;BME280;11985;49.404;7.734;2023-01-29T16:51:38;98090.00;;;-1.56;96.31
23616;BME280;11985;49.404;7.734;2023-01-29T16:56:39;98097.19;;;-1.73;96.88
23616;BME280;11985;49.404;7.734;2023-01-29T17:01:44;98099.00;;;-1.86;98.36
23616;BME280;11985;49.404;7.734;2023-01-29T17:06:48;98105.03;;;-1.98;99.83
23616;BME280;11985;49.404;7.734;2023-01-29T17:11:56;98114.03;;;-2.04;100.00
23616;BME280;11985;49.404;7.734;2023-01-29T17:17:02;98111.44;;;-2.04;100.00
23616;BME280;11985;49.404;7.734;2023-01-29T17:22:06;98105.97;;;-1.99;100.00
23616;BME280;11985;49.404;7.734;2023-01-29T17:27:17;98115.84;;;-1.93;100.00
23616;BME280;11985;49.404;7.734;2023-01-29T17:32:19;98110.69;;;-1.93;100.00
23616;BME280;11985;49.404;7.734;2023-01-29T17:37:23;98115.84;;;-1.93;100.00
23616;BME280;11985;49.404;7.734;2023-01-29T17:42:24;98127.03;;;-2.05;100.00
23616;BME280;11985;49.404;7.734;2023-01-29T17:47:27;98139.72;;;-2.28;100.00
23616;BME280;11985;49.404;7.734;2023-01-29T17:52:30;98154.50;;;-2.43;100.00
23616;BME280;11985;49.404;7.734;2023-01-29T17:57:32;98148.13;;;-2.37;100.00
23616;BME280;11985;49.404;7.734;2023-01-29T18:02:34;98153.88;;;-2.33;100.00
23616;BME280;11985;49.404;7.734;2023-01-29T18:07:37;98157.38;;;-2.34;100.00
23616;BME280;11985;49.404;7.734;2023-01-29T18:12:40;98171.44;;;-2.38;100.00
23616;BME280;11985;49.404;7.734;2023-01-29T18:17:41;98158.84;;;-2.43;100.00
23616;BME280;11985;49.404;7.734;2023-01-29T18:22:44;98168.75;;;-2.37;100.00
23616;BME280;11985;49.404;7.734;2023-01-29T18:27:46;98164.22;;;-2.21;100.00
23616;BME280;11985;49.404;7.734;2023-01-29T18:32:48;98165.44;;;-2.14;100.00
23616;BME280;11985;49.404;7.734;2023-01-29T18:37:51;98164.91;;;-2.19;100.00
23616;BME280;11985;49.404;7.734;2023-01-29T18:42:52;98153.47;;;-2.15;100.00
23616;BME280;11985;49.404;7.734;2023-01-29T18:47:54;98149.03;;;-2.00;100.00
23616;BME280;11985;49.404;7.734;2023-01-29T18:52:58;98141.38;;;-2.01;100.00
23616;BME280;11985;49.404;7.734;2023-01-29T18:58:00;98144.78;;;-2.14;100.00
23616;BME280;11985;49.404;7.734;2023-01-29T19:03:01;98151.50;;;-2.24;100.00
23616;BME280;11985;49.404;7.734;2023-01-29T19:08:04;98148.72;;;-2.33;100.00
23616;BME280;11985;49.404;7.734;2023-01-29T19:13:06;98130.66;;;-2.46;100.00
23616;BME280;11985;49.404;7.734;2023-01-29T19:18:07;98119.94;;;-2.66;100.00
23616;BME280;11985;49.404;7.734;2023-01-29T19:23:11;98129.44;;;-2.66;100.00
23616;BME280;11985;49.404;7.734;2023-01-29T19:28:12;98126.13;;;-2.55;100.00
23616;BME280;11985;49.404;7.734;2023-01-29T19:33:14;98119.91;;;-2.40;100.00
23616;BME280;11985;49.404;7.734;2023-01-29T19:38:17;98118.38;;;-2.30;100.00
23616;BME280;11985;49.404;7.734;2023-01-29T19:43:20;98124.47;;;-2.31;100.00
23616;BME280;11985;49.404;7.734;2023-01-29T19:48:22;98119.63;;;-2.35;100.00
23616;BME280;11985;49.404;7.734;2023-01-29T19:53:27;98118.38;;;-2.43;100.00
23616;BME280;11985;49.404;7.734;2023-01-29T19:58:29;98122.91;;;-2.46;100.00
23616;BME280;11985;49.404;7.734;2023-01-29T20:03:31;98120.44;;;-2.48;100.00
23616;BME280;11985;49.404;7.734;2023-01-29T20:08:34;98120.03;;;-2.54;100.00
23616;BME280;11985;49.404;7.734;2023-01-29T20:13:36;98115.69;;;-2.67;100.00
23616;BME280;11985;49.404;7.734;2023-01-29T20:18:37;98120.84;;;-2.67;100.00
23616;BME280;11985;49.404;7.734;2023-01-29T20:23:41;98126.41;;;-2.73;100.00
23616;BME280;11985;49.404;7.734;2023-01-29T20:28:44;98139.09;;;-2.70;100.00
23616;BME280;11985;49.404;7.734;2023-01-29T20:33:47;98128.50;;;-2.65;100.00
23616;BME280;11985;49.404;7.734;2023-01-29T20:38:50;98123.75;;;-2.58;100.00
23616;BME280;11985;49.404;7.734;2023-01-29T20:43:51;98122.28;;;-2.62;100.00
23616;BME280;11985;49.404;7.734;2023-01-29T20:48:53;98126.00;;;-2.67;100.00
23616;BME280;11985;49.404;7.734;2023-01-29T20:53:57;98119.00;;;-2.64;100.00
23616;BME280;11985;49.404;7.734;2023-01-29T20:59:00;98118.59;;;-2.58;100.00
23616;BME280;11985;49.404;7.734;2023-01-29T21:04:01;98110.13;;;-2.60;100.00
23616;BME280;11985;49.404;7.734;2023-01-29T21:09:04;98093.22;;;-2.64;100.00
23616;BME280;11985;49.404;7.734;2023-01-29T21:14:06;98085.34;;;-2.50;100.00
23616;BME280;11985;49.404;7.734;2023-01-29T21:19:08;98089.38;;;-2.46;100.00
23616;BME280;11985;49.404;7.734;2023-01-29T21:24:14;98098.06;;;-2.47;100.00
23616;BME280;11985;49.404;7.734;2023-01-29T21:29:18;98083.53;;;-2.48;100.00
23616;BME280;11985;49.404;7.734;2023-01-29T21:34:19;98066.28;;;-2.48;100.00
23616;BME280;11985;49.404;7.734;2023-01-29T21:39:24;98060.28;;;-2.35;100.00
23616;BME280;11985;49.404;7.734;2023-01-29T21:44:26;98040.97;;;-2.30;100.00
23616;BME280;11985;49.404;7.734;2023-01-29T21:49:27;98041.38;;;-2.23;100.00
23616;BME280;11985;49.404;7.734;2023-01-29T21:54:30;98033.53;;;-2.22;100.00
23616;BME280;11985;49.404;7.734;2023-01-29T21:59:34;98029.50;;;-2.26;100.00
23616;BME280;11985;49.404;7.734;2023-01-29T22:04:36;98025.22;;;-2.38;100.00
23616;BME280;11985;49.404;7.734;2023-01-29T22:09:39;98016.66;;;-2.51;100.00
23616;BME280;11985;49.404;7.734;2023-01-29T22:14:40;98029.84;;;-2.43;100.00
23616;BME280;11985;49.404;7.734;2023-01-29T22:19:42;98007.16;;;-2.38;100.00
23616;BME280;11985;49.404;7.734;2023-01-29T22:24:48;97999.41;;;-2.38;100.00
23616;BME280;11985;49.404;7.734;2023-01-29T22:29:51;97998.91;;;-2.43;100.00
23616;BME280;11985;49.404;7.734;2023-01-29T22:34:53;98002.19;;;-2.41;100.00
23616;BME280;11985;49.404;7.734;2023-01-29T22:39:56;97992.88;;;-2.31;100.00
23616;BME280;11985;49.404;7.734;2023-01-29T22:44:57;97977.84;;;-2.37;100.00
23616;BME280;11985;49.404;7.734;2023-01-29T22:49:59;97986.50;;;-2.38;100.00
23616;BME280;11985;49.404;7.734;2023-01-29T22:55:02;97988.34;;;-2.40;100.00
23616;BME280;11985;49.404;7.734;2023-01-29T23:00:06;97966.31;;;-2.44;100.00
23616;BME280;11985;49.404;7.734;2023-01-29T23:05:09;97953.81;;;-2.50;100.00
23616;BME280;11985;49.404;7.734;2023-01-29T23:10:13;97966.31;;;-2.57;100.00
23616;BME280;11985;49.404;7.734;2023-01-29T23:15:15;97961.97;;;-2.56;100.00
23616;BME280;11985;49.404;7.734;2023-01-29T23:20:16;97954.25;;;-2.56;100.00
23616;BME280;11985;49.404;7.734;2023-01-29T23:25:22;97946.31;;;-2.53;100.00
23616;BME280;11985;49.404;7.734;2023-01-29T23:30:43;97939.19;;;-2.62;100.00
23616;BME280;11985;49.404;7.734;2023-01-29T23:35:46;97940.03;;;-2.62;100.00
23616;BME280;11985;49.404;7.734;2023-01-29T23:40:50;97912.47;;;-2.61;100.00
23616;BME280;11985;49.404;7.734;2023-01-29T23:45:51;97911.88;;;-2.65;100.00
23616;BME280;11985;49.404;7.734;2023-01-29T23:50:53;97934.78;;;-2.73;100.00
23616;BME280;11985;49.404;7.734;2023-01-29T23:55:56;97936.47;;;-2.85;100.00
